SWA924 KBUF-KBWI
Flight info
| Callsign | SWA924 |
|---|---|
| Flight time | 0h 51m |
| Altitude | 25000 |
| Route | VAIRS DDUBS IZZEE TRISH4 |
| Aircraft | B738/M-SADE2E3GIJ4RWZ/LB1D1 |
Departure
| Time | 2026-04-30 21:22 |
|---|---|
| Airport | Buffalo Niagara International Airport (KBUF) |
Arrival
| Time | 2026-04-30 22:13 |
|---|---|
| Airport | Baltimore/Washington International Thurgood Marshall Airport (KBWI) |
| Time | Latitude | Longitude | Altitude | Speed | Heading |
|---|---|---|---|---|---|
| 2026-04-30 20:54 | 42.93660 | -78.73026 | 696 ft | 0 kts | 133° |
| 2026-04-30 21:12 | 42.93674 | -78.73046 | 686 ft | 4 kts | 134° |
| 2026-04-30 21:13 | 42.93690 | -78.73071 | 695 ft | 4 kts | 115° |
| 2026-04-30 21:13 | 42.93691 | -78.73100 | 688 ft | 4 kts | 54° |
| 2026-04-30 21:13 | 42.93678 | -78.73119 | 688 ft | 1 kts | 44° |
| 2026-04-30 21:13 | 42.93676 | -78.73122 | 689 ft | 1 kts | 44° |
| 2026-04-30 21:16 | 42.93679 | -78.73118 | 688 ft | 2 kts | 44° |
| 2026-04-30 21:16 | 42.93700 | -78.73091 | 687 ft | 6 kts | 44° |
| 2026-04-30 21:16 | 42.93735 | -78.73046 | 690 ft | 8 kts | 43° |
| 2026-04-30 21:17 | 42.93778 | -78.72993 | 687 ft | 9 kts | 38° |
| 2026-04-30 21:17 | 42.93847 | -78.72975 | 688 ft | 11 kts | 11° |
| 2026-04-30 21:17 | 42.93913 | -78.72919 | 688 ft | 13 kts | 38° |
| 2026-04-30 21:17 | 42.93992 | -78.72822 | 687 ft | 16 kts | 44° |
| 2026-04-30 21:18 | 42.94069 | -78.72711 | 688 ft | 16 kts | 48° |
| 2026-04-30 21:18 | 42.94149 | -78.72611 | 690 ft | 15 kts | 41° |
| 2026-04-30 21:18 | 42.94226 | -78.72513 | 688 ft | 15 kts | 45° |
| 2026-04-30 21:18 | 42.94299 | -78.72417 | 691 ft | 14 kts | 44° |
| 2026-04-30 21:19 | 42.94369 | -78.72326 | 694 ft | 14 kts | 43° |
| 2026-04-30 21:19 | 42.94436 | -78.72238 | 694 ft | 13 kts | 44° |
| 2026-04-30 21:19 | 42.94506 | -78.72147 | 694 ft | 15 kts | 44° |
| 2026-04-30 21:19 | 42.94582 | -78.72047 | 691 ft | 15 kts | 44° |
| 2026-04-30 21:20 | 42.94653 | -78.71951 | 690 ft | 14 kts | 44° |
| 2026-04-30 21:20 | 42.94722 | -78.71859 | 689 ft | 14 kts | 45° |
| 2026-04-30 21:20 | 42.94803 | -78.71824 | 690 ft | 13 kts | 335° |
| 2026-04-30 21:20 | 42.94845 | -78.71902 | 689 ft | 3 kts | 248° |
| 2026-04-30 21:21 | 42.94840 | -78.71910 | 688 ft | 0 kts | 231° |
| 2026-04-30 21:21 | 42.94438 | -78.72441 | 692 ft | 102 kts | 224° |
| 2026-04-30 21:22 | 42.93789 | -78.73297 | 718 ft | 152 kts | 224° |
| 2026-04-30 21:22 | 42.91393 | -78.76491 | 2245 ft | 190 kts | 227° |
| 2026-04-30 21:23 | 42.90390 | -78.77849 | 2490 ft | 217 kts | 227° |
| 2026-04-30 21:23 | 42.89657 | -78.78837 | 2725 ft | 228 kts | 227° |
| 2026-04-30 21:23 | 42.86937 | -78.81298 | 3767 ft | 261 kts | 185° |
| 2026-04-30 21:24 | 42.85107 | -78.80987 | 4566 ft | 270 kts | 172° |
| 2026-04-30 21:24 | 42.83255 | -78.80459 | 5381 ft | 273 kts | 171° |
| 2026-04-30 21:24 | 42.81381 | -78.79918 | 6250 ft | 277 kts | 171° |
| 2026-04-30 21:24 | 42.79482 | -78.79380 | 7196 ft | 281 kts | 171° |
| 2026-04-30 21:25 | 42.75576 | -78.78312 | 9079 ft | 287 kts | 172° |
| 2026-04-30 21:25 | 42.73601 | -78.77788 | 9907 ft | 291 kts | 172° |
| 2026-04-30 21:25 | 42.71586 | -78.77265 | 10599 ft | 302 kts | 172° |
| 2026-04-30 21:26 | 42.67101 | -78.76113 | 11119 ft | 351 kts | 172° |
| 2026-04-30 21:26 | 42.64668 | -78.75490 | 11702 ft | 360 kts | 172° |
| 2026-04-30 21:27 | 42.59704 | -78.74218 | 13213 ft | 366 kts | 172° |
| 2026-04-30 21:27 | 42.57182 | -78.73576 | 13923 ft | 371 kts | 172° |
| 2026-04-30 21:27 | 42.54632 | -78.72927 | 14631 ft | 375 kts | 171° |
| 2026-04-30 21:28 | 42.49455 | -78.71609 | 16063 ft | 382 kts | 172° |
| 2026-04-30 21:28 | 42.46833 | -78.70942 | 16715 ft | 386 kts | 172° |
| 2026-04-30 21:28 | 42.41498 | -78.69593 | 18056 ft | 394 kts | 171° |
| 2026-04-30 21:29 | 42.38795 | -78.68907 | 18652 ft | 398 kts | 171° |
| 2026-04-30 21:29 | 42.30506 | -78.66808 | 20349 ft | 409 kts | 171° |
| 2026-04-30 21:30 | 42.24831 | -78.65375 | 21429 ft | 415 kts | 171° |
| 2026-04-30 21:31 | 42.16259 | -78.62870 | 22868 ft | 429 kts | 160° |
| 2026-04-30 21:31 | 42.11201 | -78.58531 | 23794 ft | 439 kts | 138° |
| 2026-04-30 21:32 | 42.06840 | -78.52695 | 24569 ft | 447 kts | 136° |
| 2026-04-30 21:32 | 42.04646 | -78.49691 | 24901 ft | 452 kts | 136° |
| 2026-04-30 21:32 | 42.02437 | -78.46686 | 24990 ft | 453 kts | 136° |
| 2026-04-30 21:32 | 42.00204 | -78.43676 | 24993 ft | 454 kts | 136° |
| 2026-04-30 21:33 | 41.97966 | -78.40685 | 24999 ft | 453 kts | 136° |
| 2026-04-30 21:33 | 41.93490 | -78.34749 | 25003 ft | 452 kts | 137° |
| 2026-04-30 21:33 | 41.91246 | -78.31783 | 24998 ft | 452 kts | 137° |
| 2026-04-30 21:34 | 41.89001 | -78.28822 | 25005 ft | 453 kts | 137° |
| 2026-04-30 21:34 | 41.84505 | -78.22899 | 25000 ft | 454 kts | 137° |
| 2026-04-30 21:34 | 41.82251 | -78.19933 | 25002 ft | 454 kts | 137° |
| 2026-04-30 21:35 | 41.79997 | -78.16965 | 25006 ft | 454 kts | 137° |
| 2026-04-30 21:35 | 41.77766 | -78.14020 | 24987 ft | 445 kts | 142° |
| 2026-04-30 21:35 | 41.75572 | -78.11141 | 24927 ft | 439 kts | 142° |
| 2026-04-30 21:35 | 41.73385 | -78.08279 | 24892 ft | 440 kts | 142° |
| 2026-04-30 21:36 | 41.71194 | -78.05415 | 24892 ft | 442 kts | 142° |
| 2026-04-30 21:36 | 41.68964 | -78.02502 | 24892 ft | 443 kts | 142° |
| 2026-04-30 21:37 | 41.62356 | -77.93875 | 24891 ft | 442 kts | 142° |
| 2026-04-30 21:37 | 41.60152 | -77.91003 | 24883 ft | 442 kts | 142° |
| 2026-04-30 21:37 | 41.57946 | -77.88153 | 24899 ft | 440 kts | 142° |
| 2026-04-30 21:37 | 41.55754 | -77.85290 | 24894 ft | 440 kts | 142° |
| 2026-04-30 21:38 | 41.53563 | -77.82430 | 24896 ft | 441 kts | 142° |
| 2026-04-30 21:38 | 41.51367 | -77.79578 | 24895 ft | 440 kts | 142° |
| 2026-04-30 21:38 | 41.49041 | -77.76991 | 24896 ft | 432 kts | 152° |
| 2026-04-30 21:38 | 41.46479 | -77.74976 | 24912 ft | 425 kts | 160° |
| 2026-04-30 21:39 | 41.43746 | -77.73540 | 24911 ft | 418 kts | 169° |
| 2026-04-30 21:39 | 41.40970 | -77.72394 | 24896 ft | 419 kts | 169° |
| 2026-04-30 21:39 | 41.38183 | -77.71259 | 24904 ft | 419 kts | 169° |
| 2026-04-30 21:39 | 41.35393 | -77.70119 | 24906 ft | 419 kts | 169° |
| 2026-04-30 21:40 | 41.32609 | -77.68969 | 24919 ft | 420 kts | 169° |
| 2026-04-30 21:40 | 41.29815 | -77.67806 | 24918 ft | 421 kts | 169° |
| 2026-04-30 21:40 | 41.27023 | -77.66636 | 24902 ft | 421 kts | 169° |
| 2026-04-30 21:40 | 41.24229 | -77.65462 | 24917 ft | 421 kts | 169° |
| 2026-04-30 21:41 | 41.21443 | -77.64291 | 24915 ft | 421 kts | 169° |
| 2026-04-30 21:41 | 41.18651 | -77.63118 | 24908 ft | 421 kts | 169° |
| 2026-04-30 21:41 | 41.15852 | -77.61945 | 24908 ft | 421 kts | 169° |
| 2026-04-30 21:41 | 41.13053 | -77.60774 | 24901 ft | 422 kts | 169° |
| 2026-04-30 21:42 | 41.10251 | -77.59601 | 24897 ft | 422 kts | 169° |
| 2026-04-30 21:42 | 41.07455 | -77.58431 | 24893 ft | 422 kts | 169° |
| 2026-04-30 21:42 | 41.04656 | -77.57261 | 24890 ft | 422 kts | 169° |
| 2026-04-30 21:42 | 41.02641 | -77.56419 | 24887 ft | 422 kts | 169° |
| 2026-04-30 21:43 | 40.99843 | -77.55251 | 24886 ft | 422 kts | 169° |
| 2026-04-30 21:43 | 40.97044 | -77.54085 | 24879 ft | 421 kts | 169° |
| 2026-04-30 21:43 | 40.94252 | -77.52897 | 24897 ft | 423 kts | 167° |
| 2026-04-30 21:43 | 40.91533 | -77.51172 | 24928 ft | 431 kts | 158° |
| 2026-04-30 21:44 | 40.88955 | -77.49222 | 24916 ft | 433 kts | 157° |
| 2026-04-30 21:44 | 40.86325 | -77.47162 | 24921 ft | 434 kts | 156° |
| 2026-04-30 21:44 | 40.83727 | -77.45125 | 24910 ft | 435 kts | 157° |
| 2026-04-30 21:44 | 40.81120 | -77.43104 | 24917 ft | 435 kts | 157° |
| 2026-04-30 21:45 | 40.78501 | -77.41101 | 24916 ft | 435 kts | 158° |
| 2026-04-30 21:45 | 40.75875 | -77.39111 | 24914 ft | 434 kts | 158° |
| 2026-04-30 21:45 | 40.73295 | -77.37163 | 24897 ft | 421 kts | 158° |
| 2026-04-30 21:45 | 40.70784 | -77.35272 | 24909 ft | 416 kts | 158° |
| 2026-04-30 21:46 | 40.68246 | -77.33378 | 24927 ft | 421 kts | 158° |
| 2026-04-30 21:46 | 40.65692 | -77.31475 | 24800 ft | 422 kts | 158° |
| 2026-04-30 21:46 | 40.63151 | -77.29578 | 24429 ft | 417 kts | 158° |
| 2026-04-30 21:46 | 40.60639 | -77.27700 | 23941 ft | 414 kts | 158° |
| 2026-04-30 21:47 | 40.58142 | -77.25836 | 23478 ft | 410 kts | 158° |
| 2026-04-30 21:47 | 40.55673 | -77.23995 | 23008 ft | 407 kts | 158° |
| 2026-04-30 21:47 | 40.53218 | -77.22167 | 22541 ft | 403 kts | 158° |
| 2026-04-30 21:47 | 40.50789 | -77.20358 | 22071 ft | 400 kts | 158° |
| 2026-04-30 21:48 | 40.48371 | -77.18560 | 21596 ft | 398 kts | 158° |
| 2026-04-30 21:48 | 40.45974 | -77.16779 | 21124 ft | 395 kts | 158° |
| 2026-04-30 21:48 | 40.43588 | -77.15008 | 20661 ft | 392 kts | 158° |
| 2026-04-30 21:48 | 40.41229 | -77.13258 | 20191 ft | 389 kts | 158° |
| 2026-04-30 21:49 | 40.38879 | -77.11516 | 19728 ft | 386 kts | 158° |
| 2026-04-30 21:49 | 40.36555 | -77.09795 | 19300 ft | 382 kts | 158° |
| 2026-04-30 21:49 | 40.34263 | -77.08097 | 18930 ft | 377 kts | 158° |
| 2026-04-30 21:49 | 40.31979 | -77.06409 | 18490 ft | 375 kts | 158° |
| 2026-04-30 21:50 | 40.29717 | -77.04737 | 18051 ft | 372 kts | 158° |
| 2026-04-30 21:50 | 40.27599 | -77.02742 | 17604 ft | 381 kts | 143° |
| 2026-04-30 21:50 | 40.25708 | -77.00331 | 17204 ft | 378 kts | 141° |
| 2026-04-30 21:50 | 40.23864 | -76.97885 | 16762 ft | 377 kts | 140° |
| 2026-04-30 21:51 | 40.22031 | -76.95445 | 16322 ft | 375 kts | 140° |
| 2026-04-30 21:51 | 40.20178 | -76.92995 | 15876 ft | 372 kts | 140° |
| 2026-04-30 21:51 | 40.18376 | -76.90633 | 15441 ft | 370 kts | 140° |
| 2026-04-30 21:51 | 40.16534 | -76.88238 | 15004 ft | 368 kts | 141° |
| 2026-04-30 21:52 | 40.14721 | -76.85893 | 14567 ft | 366 kts | 140° |
| 2026-04-30 21:52 | 40.12908 | -76.83556 | 14125 ft | 364 kts | 140° |
| 2026-04-30 21:52 | 40.11114 | -76.81246 | 13688 ft | 362 kts | 140° |
| 2026-04-30 21:52 | 40.09322 | -76.78943 | 13258 ft | 360 kts | 140° |
| 2026-04-30 21:53 | 40.07545 | -76.76660 | 12822 ft | 358 kts | 140° |
| 2026-04-30 21:53 | 40.05776 | -76.74390 | 12396 ft | 355 kts | 139° |
| 2026-04-30 21:53 | 40.04019 | -76.72134 | 11964 ft | 353 kts | 139° |
| 2026-04-30 21:53 | 40.02266 | -76.69886 | 11539 ft | 351 kts | 139° |
| 2026-04-30 21:54 | 40.00528 | -76.67663 | 11114 ft | 349 kts | 139° |
| 2026-04-30 21:54 | 39.98802 | -76.65454 | 10730 ft | 346 kts | 138° |
| 2026-04-30 21:54 | 39.97112 | -76.63291 | 10593 ft | 336 kts | 139° |
| 2026-04-30 21:54 | 39.95470 | -76.61189 | 10438 ft | 326 kts | 138° |
| 2026-04-30 21:55 | 39.93872 | -76.59148 | 10297 ft | 316 kts | 138° |
| 2026-04-30 21:55 | 39.92843 | -76.57836 | 10198 ft | 307 kts | 138° |
| 2026-04-30 21:55 | 39.91337 | -76.55916 | 10078 ft | 299 kts | 139° |
| 2026-04-30 21:55 | 39.89695 | -76.54357 | 9943 ft | 286 kts | 160° |
| 2026-04-30 21:56 | 39.87857 | -76.53494 | 9883 ft | 278 kts | 165° |
| 2026-04-30 21:56 | 39.85999 | -76.52708 | 9786 ft | 276 kts | 166° |
| 2026-04-30 21:56 | 39.84160 | -76.51939 | 9709 ft | 280 kts | 166° |
| 2026-04-30 21:56 | 39.82317 | -76.51162 | 9600 ft | 284 kts | 165° |
| 2026-04-30 21:57 | 39.79807 | -76.50093 | 9475 ft | 284 kts | 165° |
| 2026-04-30 21:57 | 39.78538 | -76.49548 | 9408 ft | 284 kts | 165° |
| 2026-04-30 21:57 | 39.76667 | -76.48743 | 9313 ft | 283 kts | 165° |
| 2026-04-30 21:57 | 39.74798 | -76.47936 | 9207 ft | 283 kts | 165° |
| 2026-04-30 21:58 | 39.72926 | -76.47129 | 9101 ft | 283 kts | 165° |
| 2026-04-30 21:58 | 39.71057 | -76.46322 | 8996 ft | 283 kts | 164° |
| 2026-04-30 21:58 | 39.69182 | -76.45513 | 8815 ft | 286 kts | 164° |
| 2026-04-30 21:58 | 39.67289 | -76.44697 | 8647 ft | 287 kts | 164° |
| 2026-04-30 21:59 | 39.65396 | -76.43878 | 8463 ft | 285 kts | 164° |
| 2026-04-30 21:59 | 39.63525 | -76.43069 | 8284 ft | 281 kts | 164° |
| 2026-04-30 21:59 | 39.61685 | -76.42274 | 8108 ft | 276 kts | 164° |
| 2026-04-30 22:00 | 39.58046 | -76.40705 | 7781 ft | 276 kts | 164° |
| 2026-04-30 22:00 | 39.54392 | -76.39131 | 7435 ft | 277 kts | 164° |
| 2026-04-30 22:00 | 39.52556 | -76.38341 | 7268 ft | 278 kts | 164° |
| 2026-04-30 22:01 | 39.50707 | -76.37649 | 7084 ft | 275 kts | 176° |
| 2026-04-30 22:01 | 39.48840 | -76.37833 | 6919 ft | 268 kts | 197° |
| 2026-04-30 22:01 | 39.47048 | -76.38435 | 6766 ft | 266 kts | 198° |
| 2026-04-30 22:01 | 39.45263 | -76.39057 | 6597 ft | 266 kts | 198° |
| 2026-04-30 22:02 | 39.43476 | -76.39671 | 6431 ft | 265 kts | 198° |
| 2026-04-30 22:02 | 39.41695 | -76.40273 | 6272 ft | 264 kts | 198° |
| 2026-04-30 22:02 | 39.39920 | -76.40869 | 6107 ft | 263 kts | 198° |
| 2026-04-30 22:02 | 39.38151 | -76.41459 | 5947 ft | 263 kts | 198° |
| 2026-04-30 22:03 | 39.36383 | -76.42048 | 5784 ft | 262 kts | 198° |
| 2026-04-30 22:03 | 39.34621 | -76.42636 | 5622 ft | 260 kts | 198° |
| 2026-04-30 22:03 | 39.32887 | -76.43214 | 5460 ft | 255 kts | 198° |
| 2026-04-30 22:03 | 39.31189 | -76.43778 | 5296 ft | 250 kts | 198° |
| 2026-04-30 22:04 | 39.29505 | -76.44337 | 5139 ft | 244 kts | 198° |
| 2026-04-30 22:04 | 39.27895 | -76.44872 | 4975 ft | 240 kts | 198° |
| 2026-04-30 22:04 | 39.24686 | -76.45940 | 4516 ft | 236 kts | 198° |
| 2026-04-30 22:05 | 39.23086 | -76.46472 | 4337 ft | 232 kts | 198° |
| 2026-04-30 22:05 | 39.21526 | -76.46988 | 4068 ft | 233 kts | 198° |
| 2026-04-30 22:05 | 39.19971 | -76.47471 | 4003 ft | 227 kts | 197° |
| 2026-04-30 22:05 | 39.18469 | -76.47917 | 4013 ft | 222 kts | 197° |
| 2026-04-30 22:06 | 39.16950 | -76.48369 | 4007 ft | 221 kts | 197° |
| 2026-04-30 22:06 | 39.13912 | -76.49257 | 4020 ft | 228 kts | 191° |
| 2026-04-30 22:06 | 39.12337 | -76.48931 | 4004 ft | 235 kts | 153° |
| 2026-04-30 22:07 | 39.11000 | -76.47752 | 4018 ft | 235 kts | 145° |
| 2026-04-30 22:07 | 39.09677 | -76.46508 | 4014 ft | 235 kts | 146° |
| 2026-04-30 22:07 | 39.08356 | -76.45273 | 4009 ft | 234 kts | 146° |
| 2026-04-30 22:07 | 39.07036 | -76.44050 | 4011 ft | 234 kts | 148° |
| 2026-04-30 22:08 | 39.05521 | -76.43329 | 3802 ft | 235 kts | 182° |
| 2026-04-30 22:08 | 39.03995 | -76.43845 | 3659 ft | 226 kts | 217° |
| 2026-04-30 22:08 | 39.02971 | -76.45283 | 3488 ft | 217 kts | 248° |
| 2026-04-30 22:08 | 39.02664 | -76.47126 | 3358 ft | 209 kts | 270° |
| 2026-04-30 22:09 | 39.02641 | -76.48994 | 3190 ft | 210 kts | 271° |
| 2026-04-30 22:09 | 39.02653 | -76.50870 | 3074 ft | 208 kts | 276° |
| 2026-04-30 22:09 | 39.02912 | -76.52678 | 2903 ft | 204 kts | 296° |
| 2026-04-30 22:09 | 39.03795 | -76.54010 | 2811 ft | 190 kts | 316° |
| 2026-04-30 22:10 | 39.04740 | -76.55135 | 2661 ft | 181 kts | 316° |
| 2026-04-30 22:10 | 39.05654 | -76.56160 | 2533 ft | 171 kts | 320° |
| 2026-04-30 22:10 | 39.06587 | -76.57076 | 2433 ft | 169 kts | 322° |
| 2026-04-30 22:10 | 39.07540 | -76.57976 | 2310 ft | 172 kts | 322° |
| 2026-04-30 22:11 | 39.09482 | -76.59780 | 1853 ft | 169 kts | 321° |
| 2026-04-30 22:11 | 39.10411 | -76.60645 | 1618 ft | 159 kts | 320° |
| 2026-04-30 22:11 | 39.11295 | -76.61468 | 1415 ft | 155 kts | 320° |
| 2026-04-30 22:12 | 39.12145 | -76.62259 | 1223 ft | 152 kts | 319° |
| 2026-04-30 22:12 | 39.13002 | -76.63057 | 1035 ft | 153 kts | 320° |
| 2026-04-30 22:12 | 39.13873 | -76.63869 | 820 ft | 154 kts | 320° |
| 2026-04-30 22:12 | 39.14749 | -76.64682 | 613 ft | 152 kts | 321° |
| 2026-04-30 22:13 | 39.15603 | -76.65475 | 410 ft | 150 kts | 321° |
| 2026-04-30 22:13 | 39.16452 | -76.66265 | 218 ft | 151 kts | 321° |
| 2026-04-30 22:13 | 39.17267 | -76.67002 | 151 ft | 128 kts | 314° |
| 2026-04-30 22:13 | 39.17675 | -76.67418 | 143 ft | 33 kts | 323° |
| 2026-04-30 22:14 | 39.17736 | -76.67464 | 144 ft | 5 kts | 343° |
| 2026-04-30 22:14 | 39.17796 | -76.67473 | 143 ft | 0 kts | 2° |
| 2026-04-30 22:14 | 39.17827 | -76.67448 | 144 ft | 10 kts | 53° |
| 2026-04-30 22:14 | 39.17820 | -76.67369 | 148 ft | 10 kts | 131° |
| 2026-04-30 22:15 | 39.17769 | -76.67311 | 149 ft | 11 kts | 142° |
| 2026-04-30 22:15 | 39.17706 | -76.67253 | 150 ft | 11 kts | 146° |
| 2026-04-30 22:15 | 39.17643 | -76.67196 | 150 ft | 11 kts | 143° |
| 2026-04-30 22:15 | 39.17581 | -76.67141 | 151 ft | 11 kts | 145° |
| 2026-04-30 22:16 | 39.17525 | -76.67083 | 152 ft | 10 kts | 133° |
| 2026-04-30 22:16 | 39.17486 | -76.67008 | 153 ft | 10 kts | 116° |
| 2026-04-30 22:17 | 39.17558 | -76.66809 | 155 ft | 6 kts | 359° |
| 2026-04-30 22:17 | 39.17593 | -76.66836 | 155 ft | 6 kts | 314° |
| 2026-04-30 22:17 | 39.17615 | -76.66865 | 155 ft | 0 kts | 314° |